createdAt,value
2018-07-01T00:01:23.567Z,36.60
2018-07-01T00:03:53.144Z,36.37
2018-07-01T00:06:23.666Z,36.56
2018-07-01T00:08:53.345Z,36.64
2018-07-01T00:11:22.711Z,36.98
2018-07-01T00:13:52.073Z,36.59
2018-07-01T00:16:21.436Z,36.36
2018-07-01T00:18:50.770Z,37.12
2018-07-01T00:21:20.164Z,38.08
2018-07-01T00:23:49.460Z,37.76
2018-07-01T00:26:19.276Z,38.05
2018-07-01T00:28:48.638Z,37.94
2018-07-01T00:31:18.362Z,38.05
2018-07-01T00:33:48.172Z,37.89
2018-07-01T00:36:17.946Z,37.63
2018-07-01T00:38:47.297Z,37.45
2018-07-01T00:41:17.188Z,37.88
2018-07-01T00:43:46.896Z,38.21
2018-07-01T00:46:16.258Z,39.12
2018-07-01T00:48:46.607Z,38.87
2018-07-01T00:51:15.967Z,38.86
2018-07-01T00:53:45.280Z,38.84
2018-07-01T00:56:14.742Z,38.60
2018-07-01T00:58:44.560Z,37.93
2018-07-01T01:01:15.288Z,37.92
2018-07-01T01:03:44.620Z,38.14
2018-07-01T01:06:14.020Z,38.27
2018-07-01T01:08:44.201Z,38.30
2018-07-01T01:11:15.989Z,38.67
2018-07-01T01:13:46.779Z,38.73
2018-07-01T01:16:17.115Z,39.20
2018-07-01T01:18:46.459Z,40.54
2018-07-01T01:21:15.841Z,40.64
2018-07-01T01:23:45.579Z,40.46
2018-07-01T01:26:15.317Z,40.17
2018-07-01T01:28:44.696Z,40.29
2018-07-01T01:31:14.045Z,40.11
2018-07-01T01:33:43.852Z,40.11
2018-07-01T01:36:13.215Z,40.42
2018-07-01T01:38:43.519Z,40.76
2018-07-01T01:41:19.124Z,40.56
2018-07-01T01:43:53.991Z,40.58
2018-07-01T01:47:30.859Z,41.25
2018-07-01T01:50:04.400Z,41.96
2018-07-01T01:52:42.315Z,42.79
2018-07-01T01:55:17.771Z,42.48
2018-07-01T01:57:55.075Z,42.82
2018-07-01T02:00:28.514Z,42.48
2018-07-01T02:03:02.402Z,42.39
2018-07-01T02:05:37.228Z,42.44
2018-07-01T02:08:08.905Z,42.05
2018-07-01T02:10:38.284Z,42.01
2018-07-01T02:13:07.719Z,41.82
2018-07-01T02:15:41.401Z,42.30
2018-07-01T02:18:11.198Z,42.53
2018-07-01T02:20:41.515Z,42.64
2018-07-01T02:23:22.159Z,43.24
2018-07-01T02:25:51.556Z,42.90
2018-07-01T02:28:20.915Z,43.51
2018-07-01T02:30:50.356Z,43.99
2018-07-01T02:33:19.712Z,44.03
2018-07-01T02:35:49.771Z,43.94
2018-07-01T02:38:19.429Z,44.08
2018-07-01T02:40:49.595Z,43.72
2018-07-01T02:43:19.268Z,44.19
2018-07-01T02:45:48.902Z,44.17
2018-07-01T02:48:18.511Z,44.15
2018-07-01T02:50:48.619Z,44.53
2018-07-01T02:53:18.335Z,44.42
2018-07-01T02:55:48.253Z,44.85
2018-07-01T02:58:18.105Z,44.19
2018-07-01T03:00:47.470Z,44.70
2018-07-01T03:03:17.016Z,45.25
2018-07-01T03:05:46.347Z,44.94
2018-07-01T03:08:15.660Z,44.40
2018-07-01T03:10:45.065Z,44.80
2018-07-01T03:13:17.726Z,44.90
2018-07-01T03:15:47.684Z,46.27
2018-07-01T03:18:16.997Z,46.58
2018-07-01T03:20:46.552Z,46.84
2018-07-01T03:23:15.869Z,46.50
2018-07-01T03:25:45.462Z,46.63
2018-07-01T03:28:14.799Z,46.83
2018-07-01T03:30:44.473Z,46.42
2018-07-01T03:33:14.222Z,45.93
2018-07-01T03:35:43.708Z,45.60
2018-07-01T03:38:14.389Z,45.42
2018-07-01T03:40:43.738Z,45.90
2018-07-01T03:43:13.350Z,45.76
2018-07-01T03:45:42.828Z,46.00
2018-07-01T03:48:12.549Z,45.92
2018-07-01T03:50:41.928Z,46.31
2018-07-01T03:53:11.241Z,46.63
2018-07-01T03:55:40.932Z,46.51
2018-07-01T03:58:11.352Z,46.87
2018-07-01T04:00:40.844Z,46.82
2018-07-01T04:03:10.538Z,46.41
2018-07-01T04:05:40.838Z,46.06
2018-07-01T04:08:10.167Z,46.41
2018-07-01T04:10:40.350Z,46.11
2018-07-01T04:13:10.229Z,46.77
2018-07-01T04:15:39.991Z,46.62
2018-07-01T04:18:09.293Z,48.00
2018-07-01T04:20:38.775Z,47.94
2018-07-01T04:23:08.327Z,48.57
2018-07-01T04:25:37.677Z,48.51
2018-07-01T04:28:07.014Z,48.33
2018-07-01T04:30:36.374Z,47.54
2018-07-01T04:33:06.044Z,47.29
2018-07-01T04:35:35.893Z,46.62
2018-07-01T04:38:05.460Z,46.89
2018-07-01T04:40:34.829Z,47.07
2018-07-01T04:43:04.176Z,47.22
2018-07-01T04:45:33.961Z,45.81
2018-07-01T04:48:03.921Z,45.74
2018-07-01T04:50:34.383Z,45.57
2018-07-01T04:53:04.042Z,45.27
2018-07-01T04:55:33.343Z,46.07
2018-07-01T04:58:02.936Z,45.45
2018-07-01T05:00:32.284Z,45.66
2018-07-01T05:03:01.640Z,44.56
2018-07-01T05:05:30.998Z,44.64
2018-07-01T05:08:00.393Z,45.97
2018-07-01T05:10:30.884Z,44.88
2018-07-01T05:13:01.074Z,45.07
2018-07-01T05:15:31.562Z,44.37
2018-07-01T05:20:38.213Z,44.03
2018-07-01T05:23:07.889Z,43.68
2018-07-01T05:25:37.235Z,43.92
2018-07-01T05:28:06.637Z,43.75
2018-07-01T05:30:36.247Z,43.19
2018-07-01T05:33:06.115Z,43.33
2018-07-01T05:35:35.758Z,43.34
2018-07-01T05:38:05.504Z,42.86
2018-07-01T05:40:34.813Z,43.04
2018-07-01T05:43:04.292Z,42.90
2018-07-01T05:45:33.715Z,43.03
2018-07-01T05:48:03.668Z,42.21
2018-07-01T05:50:33.325Z,42.44
2018-07-01T05:53:04.271Z,42.04
2018-07-01T05:55:33.612Z,41.68
2018-07-01T05:58:02.974Z,41.30
2018-07-01T06:00:32.307Z,41.43
2018-07-01T06:03:02.465Z,40.94
2018-07-01T06:05:31.992Z,41.54
2018-07-01T06:08:03.570Z,41.04
2018-07-01T06:10:33.499Z,41.47
2018-07-01T06:13:03.905Z,41.30
2018-07-01T06:15:33.693Z,41.14
2018-07-01T06:18:03.819Z,41.22
2018-07-01T06:20:33.131Z,41.35
2018-07-01T06:23:03.499Z,40.95
2018-07-01T06:25:33.072Z,40.59
2018-07-01T06:28:03.471Z,39.89
2018-07-01T06:30:33.198Z,40.23
2018-07-01T06:33:02.612Z,39.89
2018-07-01T06:35:32.311Z,39.20
2018-07-01T06:38:01.607Z,39.11
2018-07-01T06:40:31.311Z,38.91
2018-07-01T06:43:01.743Z,38.89
2018-07-01T06:45:31.099Z,38.48
2018-07-01T06:48:01.313Z,39.29
2018-07-01T06:50:31.116Z,39.05
2018-07-01T06:53:00.624Z,38.26
2018-07-01T06:55:30.432Z,37.53
2018-07-01T06:58:00.231Z,37.93
2018-07-01T07:00:29.673Z,37.29
2018-07-01T07:02:58.990Z,37.05
2018-07-01T07:05:28.704Z,36.32
2018-07-01T07:07:58.880Z,36.22
2018-07-01T07:10:28.833Z,35.38
2018-07-01T07:12:59.303Z,35.20
2018-07-01T07:15:29.821Z,35.11
2018-07-01T07:17:59.163Z,34.23
2018-07-01T07:20:29.586Z,33.77
2018-07-01T07:22:59.524Z,34.01
2018-07-01T07:25:28.896Z,34.61
2018-07-01T07:27:58.592Z,33.61
2018-07-01T07:30:28.201Z,33.10
2018-07-01T07:32:57.523Z,33.07
2018-07-01T07:35:26.907Z,32.39
2018-07-01T07:37:56.936Z,31.28
2018-07-01T07:40:27.263Z,30.89
2018-07-01T07:42:56.588Z,31.38
2018-07-01T07:45:25.952Z,30.79
2018-07-01T07:47:55.575Z,30.90
2018-07-01T07:50:26.838Z,30.02
2018-07-01T07:52:57.046Z,29.65
2018-07-01T07:55:26.397Z,29.37
2018-07-01T07:57:56.382Z,28.61
2018-07-01T08:00:26.014Z,28.99
2018-07-01T08:02:56.672Z,29.14
2018-07-01T08:05:26.068Z,29.05
2018-07-01T08:07:55.356Z,28.72
2018-07-01T08:10:24.653Z,29.19
2018-07-01T08:12:54.086Z,29.41
2018-07-01T08:15:23.382Z,28.92
2018-07-01T08:17:52.729Z,28.59
2018-07-01T08:20:22.407Z,28.56
2018-07-01T08:22:52.275Z,28.64
2018-07-01T08:25:21.918Z,28.75
2018-07-01T08:27:51.492Z,27.89
2018-07-01T08:30:21.611Z,27.55
2018-07-01T08:32:51.144Z,28.54
2018-07-01T08:35:20.444Z,29.31
2018-07-01T08:37:50.040Z,28.60
2018-07-01T08:40:19.762Z,29.07
2018-07-01T08:42:49.096Z,29.01
2018-07-01T08:45:18.632Z,28.31
2018-07-01T08:47:47.977Z,28.27
2018-07-01T08:50:17.381Z,28.35
2018-07-01T08:52:46.754Z,28.75
2018-07-01T08:55:16.291Z,28.27
2018-07-01T08:57:45.656Z,27.59
2018-07-01T09:00:15.315Z,27.73
2018-07-01T09:02:44.688Z,27.44
2018-07-01T09:05:14.005Z,27.42
2018-07-01T09:07:44.395Z,27.46
2018-07-01T09:10:13.727Z,26.83
2018-07-01T09:12:43.266Z,28.11
2018-07-01T09:15:12.642Z,27.62
2018-07-01T09:17:42.993Z,27.33
2018-07-01T09:20:12.363Z,27.53
2018-07-01T09:22:42.004Z,27.12
2018-07-01T09:25:11.668Z,26.89
2018-07-01T09:27:41.002Z,26.37
2018-07-01T09:30:10.600Z,26.79
2018-07-01T09:32:40.308Z,27.53
2018-07-01T09:35:10.105Z,26.86
2018-07-01T09:37:40.632Z,27.09
2018-07-01T09:40:10.462Z,26.84
2018-07-01T09:42:41.178Z,26.78
2018-07-01T09:45:10.568Z,24.70
2018-07-01T09:47:40.621Z,25.29
2018-07-01T09:50:11.298Z,25.72
2018-07-01T09:52:40.645Z,26.87
2018-07-01T09:55:10.449Z,26.85
2018-07-01T09:57:40.078Z,26.10
2018-07-01T10:00:09.611Z,24.43
2018-07-01T10:02:39.176Z,25.17
2018-07-01T10:05:08.563Z,25.32
2018-07-01T10:07:37.874Z,25.62
2018-07-01T10:10:07.823Z,26.10
2018-07-01T10:12:37.797Z,25.94
2018-07-01T10:15:07.196Z,24.93
2018-07-01T10:17:36.516Z,25.90
2018-07-01T10:20:06.114Z,25.40
2018-07-01T10:22:35.425Z,25.79
2018-07-01T10:25:04.925Z,25.14
2018-07-01T10:27:34.626Z,25.25
2018-07-01T10:30:04.095Z,24.90
2018-07-01T10:32:39.211Z,24.77
2018-07-01T10:35:09.589Z,24.85
2018-07-01T10:37:38.927Z,24.39
2018-07-01T10:40:08.280Z,23.89
2018-07-01T10:42:37.738Z,23.94
2018-07-01T10:45:07.318Z,24.07
2018-07-01T10:47:36.644Z,22.97
2018-07-01T10:50:05.998Z,23.36
2018-07-01T10:52:36.626Z,23.64
2018-07-01T10:55:06.058Z,22.99
2018-07-01T10:57:35.688Z,23.71
2018-07-01T11:00:05.550Z,22.90
2018-07-01T11:02:35.179Z,22.75
2018-07-01T11:05:04.813Z,22.29
2018-07-01T11:07:34.547Z,22.32
2018-07-01T11:10:04.442Z,21.53
2018-07-01T11:12:34.141Z,21.83
2018-07-01T11:15:03.487Z,21.31
2018-07-01T11:17:32.868Z,21.08
2018-07-01T11:20:02.311Z,22.19
2018-07-01T11:22:32.487Z,22.16
2018-07-01T11:25:02.067Z,21.83
2018-07-01T11:27:32.987Z,21.44
2018-07-01T11:30:02.637Z,21.29
2018-07-01T11:32:31.996Z,21.58
2018-07-01T11:35:01.434Z,21.34
2018-07-01T11:37:31.341Z,21.02
2018-07-01T11:40:01.699Z,20.95
2018-07-01T11:42:31.433Z,20.79
2018-07-01T11:45:01.336Z,20.65
2018-07-01T11:47:30.688Z,21.36
2018-07-01T11:49:59.995Z,20.88
2018-07-01T11:52:29.773Z,20.00
2018-07-01T11:54:59.045Z,20.79
2018-07-01T11:57:28.420Z,19.82
2018-07-01T11:59:58.415Z,19.97
2018-07-01T12:02:27.767Z,19.81
2018-07-01T12:05:16.206Z,19.67
2018-07-01T12:07:26.754Z,19.78
2018-07-01T12:09:56.334Z,18.88
2018-07-01T12:12:25.697Z,18.69
2018-07-01T12:14:55.386Z,19.63
2018-07-01T12:17:25.065Z,19.00
2018-07-01T12:19:54.389Z,18.61
2018-07-01T12:22:23.806Z,19.02
2018-07-01T12:24:53.252Z,18.91
2018-07-01T12:27:22.681Z,18.62
2018-07-01T12:29:52.256Z,18.47
2018-07-01T12:32:21.879Z,18.57
2018-07-01T12:34:51.723Z,19.36
2018-07-01T12:37:21.712Z,18.98
2018-07-01T12:39:51.340Z,18.36
2018-07-01T12:42:20.685Z,18.24
2018-07-01T12:44:50.500Z,18.25
2018-07-01T12:47:20.104Z,18.12
2018-07-01T12:49:49.440Z,18.45
2018-07-01T12:52:19.048Z,18.51
2018-07-01T12:54:48.441Z,18.18
2018-07-01T12:57:17.801Z,18.44
2018-07-01T12:59:47.883Z,18.48
2018-07-01T13:02:17.698Z,18.21
2018-07-01T13:04:47.051Z,16.94
2018-07-01T13:07:16.868Z,17.49
2018-07-01T13:09:46.313Z,17.68
2018-07-01T13:12:16.380Z,18.50
2018-07-01T13:14:46.131Z,17.41
2018-07-01T13:17:15.459Z,17.87
2018-07-01T13:19:45.179Z,17.29
2018-07-01T13:22:14.540Z,17.54
2018-07-01T13:24:44.693Z,17.36
2018-07-01T13:27:14.117Z,16.80
2018-07-01T13:29:43.501Z,16.91
2018-07-01T13:32:12.829Z,16.79
2018-07-01T13:34:42.160Z,16.98
2018-07-01T13:37:12.587Z,16.55
2018-07-01T13:39:42.300Z,16.45
2018-07-01T13:42:13.604Z,16.90
2018-07-01T13:44:42.956Z,17.10
2018-07-01T13:47:12.601Z,17.08
2018-07-01T13:49:41.956Z,17.35
2018-07-01T13:52:11.660Z,16.79
2018-07-01T13:54:41.011Z,17.39
2018-07-01T13:57:11.189Z,16.49
2018-07-01T13:59:40.628Z,16.59
2018-07-01T14:02:10.332Z,17.02
2018-07-01T14:04:40.115Z,16.87
2018-07-01T14:07:09.931Z,15.91
2018-07-01T14:09:39.594Z,15.74
2018-07-01T14:12:09.347Z,15.73
2018-07-01T14:14:38.958Z,15.87
2018-07-01T14:17:08.740Z,16.94
2018-07-01T14:19:38.893Z,17.19
2018-07-01T14:22:09.419Z,17.20
2018-07-01T14:24:39.039Z,17.04
2018-07-01T14:27:08.799Z,16.84
2018-07-01T14:29:38.131Z,16.48
2018-07-01T14:32:08.326Z,16.16
2018-07-01T14:34:38.680Z,16.33
2018-07-01T14:37:08.300Z,17.25
2018-07-01T14:39:37.751Z,17.60
2018-07-01T14:42:07.319Z,16.64
2018-07-01T14:44:36.685Z,16.68
2018-07-01T14:47:06.643Z,16.57
2018-07-01T14:49:35.968Z,16.73
2018-07-01T14:52:05.922Z,16.52
2018-07-01T14:54:35.847Z,16.93
2018-07-01T14:57:06.480Z,17.29
2018-07-01T14:59:35.821Z,17.54
2018-07-01T15:02:05.210Z,16.87
2018-07-01T15:04:34.594Z,16.32
2018-07-01T15:07:04.936Z,16.02
2018-07-01T15:09:34.427Z,16.03
2018-07-01T15:12:03.808Z,17.03
2018-07-01T15:14:33.203Z,17.13
2018-07-01T15:17:02.532Z,16.86
2018-07-01T15:19:32.292Z,16.85
2018-07-01T15:22:02.133Z,16.23
2018-07-01T15:24:31.464Z,16.01
2018-07-01T15:27:01.384Z,16.55
2018-07-01T15:29:30.768Z,16.49
2018-07-01T15:32:00.117Z,16.16
2018-07-01T15:34:29.501Z,16.47
2018-07-01T15:36:58.847Z,17.00
2018-07-01T15:39:28.218Z,17.05
2018-07-01T15:41:57.890Z,16.99
2018-07-01T15:44:27.406Z,17.63
2018-07-01T15:46:57.108Z,16.84
2018-07-01T15:49:26.490Z,15.82
2018-07-01T15:51:56.921Z,15.78
2018-07-01T15:54:26.280Z,15.75
2018-07-01T15:56:55.616Z,15.91
2018-07-01T15:59:25.451Z,16.48
2018-07-01T16:01:55.076Z,16.55
2018-07-01T16:04:24.465Z,16.99
2018-07-01T16:06:54.181Z,16.53
2018-07-01T16:09:23.532Z,16.65
2018-07-01T16:11:53.814Z,15.84
2018-07-01T16:14:24.214Z,16.71
2018-07-01T16:16:53.900Z,15.88
2018-07-01T16:19:23.226Z,15.88
2018-07-01T16:21:54.292Z,16.42
2018-07-01T16:24:23.967Z,17.53
2018-07-01T16:27:01.365Z,16.40
2018-07-01T16:29:30.806Z,16.96
2018-07-01T16:32:00.926Z,16.10
2018-07-01T16:34:30.589Z,15.74
2018-07-01T16:37:00.228Z,16.20
2018-07-01T16:39:30.781Z,16.63
2018-07-01T16:42:01.720Z,16.90
2018-07-01T16:44:31.015Z,15.89
2018-07-01T16:47:00.795Z,15.91
2018-07-01T16:49:30.690Z,17.17
2018-07-01T16:52:00.290Z,16.51
2018-07-01T16:54:29.604Z,16.15
2018-07-01T16:56:58.955Z,16.92
2018-07-01T16:59:28.623Z,17.17
2018-07-01T17:01:58.631Z,16.63
2018-07-01T17:04:28.339Z,17.44
2018-07-01T17:06:58.113Z,17.07
2018-07-01T17:09:27.421Z,17.08
2018-07-01T17:11:56.780Z,17.34
2018-07-01T17:14:26.364Z,17.39
2018-07-01T17:16:55.720Z,18.18
2018-07-01T17:19:25.040Z,18.07
2018-07-01T17:21:54.415Z,17.78
2018-07-01T17:24:24.624Z,18.13
2018-07-01T17:26:54.832Z,18.37
2018-07-01T17:29:24.461Z,18.15
2018-07-01T17:31:59.102Z,18.02
2018-07-01T17:34:28.749Z,18.73
2018-07-01T17:36:58.104Z,18.27
2018-07-01T17:39:28.336Z,18.01
2018-07-01T17:41:58.420Z,17.81
2018-07-01T17:44:27.720Z,18.24
2018-07-01T17:46:57.098Z,18.54
2018-07-01T17:49:26.719Z,18.46
2018-07-01T17:51:56.422Z,19.31
2018-07-01T17:54:25.794Z,19.34
2018-07-01T17:56:56.658Z,19.53
2018-07-01T17:59:26.036Z,19.58
2018-07-01T18:01:55.832Z,19.79
2018-07-01T18:06:53.572Z,19.91
2018-07-01T18:09:23.436Z,19.96
2018-07-01T18:11:52.837Z,19.91
2018-07-01T18:14:22.192Z,19.87
2018-07-01T18:16:52.401Z,19.84
2018-07-01T18:19:21.998Z,20.48
2018-07-01T18:22:16.930Z,20.48
2018-07-01T18:24:48.921Z,20.49
2018-07-01T18:26:50.889Z,20.32
2018-07-01T18:29:20.708Z,19.84
2018-07-01T18:31:49.950Z,19.81
2018-07-01T18:34:21.123Z,20.21
2018-07-01T18:36:50.482Z,20.16
2018-07-01T18:39:20.764Z,20.51
2018-07-01T18:41:50.194Z,20.65
2018-07-01T18:44:19.556Z,20.83
2018-07-01T18:46:49.045Z,20.85
2018-07-01T18:49:18.641Z,21.35
2018-07-01T18:51:47.960Z,21.47
2018-07-01T18:54:17.315Z,21.55
2018-07-01T18:56:46.643Z,21.66
2018-07-01T18:59:16.004Z,22.04
2018-07-01T19:01:45.630Z,21.91
2018-07-01T19:04:15.660Z,22.28
2018-07-01T19:06:44.993Z,22.75
2018-07-01T19:09:14.721Z,22.46
2018-07-01T19:11:44.052Z,23.08
2018-07-01T19:14:13.412Z,22.76
2018-07-01T19:16:43.335Z,22.56
2018-07-01T19:19:13.287Z,23.25
2018-07-01T19:21:42.623Z,23.10
2018-07-01T19:24:12.664Z,23.90
2018-07-01T19:26:42.475Z,23.85
2018-07-01T19:29:11.840Z,24.22
2018-07-01T19:31:41.701Z,23.96
2018-07-01T19:34:11.794Z,24.37
2018-07-01T19:36:41.829Z,24.63
2018-07-01T19:39:12.713Z,24.89
2018-07-01T19:41:42.596Z,24.41
2018-07-01T19:44:12.236Z,25.37
2018-07-01T19:46:42.069Z,25.74
2018-07-01T19:49:11.361Z,25.38
2018-07-01T19:51:40.715Z,25.19
2018-07-01T19:54:11.288Z,25.78
2018-07-01T19:56:40.648Z,26.09
2018-07-01T19:59:09.945Z,25.34
2018-07-01T20:01:39.820Z,26.05
2018-07-01T20:04:09.483Z,26.05
2018-07-01T20:06:38.845Z,26.14
2018-07-01T20:09:09.340Z,26.23
2018-07-01T20:11:39.176Z,26.99
2018-07-01T20:14:09.114Z,26.90
2018-07-01T20:16:38.894Z,27.08
2018-07-01T20:19:08.249Z,27.43
2018-07-01T20:21:37.609Z,31.44
2018-07-01T20:24:06.984Z,27.98
2018-07-01T20:26:36.850Z,29.86
2018-07-01T20:29:06.466Z,28.78
2018-07-01T20:31:35.830Z,33.96
2018-07-01T20:34:05.754Z,28.51
2018-07-01T20:36:35.520Z,29.63
2018-07-01T20:39:10.499Z,28.68
2018-07-01T20:41:40.164Z,28.75
2018-07-01T20:44:09.767Z,29.26
2018-07-01T20:46:39.408Z,28.03
2018-07-01T20:49:08.804Z,28.12
2018-07-01T20:51:38.138Z,28.69
2018-07-01T20:54:08.140Z,28.66
2018-07-01T20:56:38.084Z,29.17
2018-07-01T20:59:07.450Z,29.40
2018-07-01T21:01:37.159Z,29.26
2018-07-01T21:04:06.901Z,29.52
2018-07-01T21:06:37.164Z,30.02
2018-07-01T21:09:08.632Z,30.38
2018-07-01T21:11:38.216Z,30.58
2018-07-01T21:14:07.582Z,30.23
2018-07-01T21:16:37.949Z,30.46
2018-07-01T21:19:07.956Z,31.05
2018-07-01T21:21:37.592Z,31.01
2018-07-01T21:24:06.972Z,31.03
2018-07-01T21:26:36.412Z,31.02
2018-07-01T21:29:06.168Z,31.16
2018-07-01T21:31:35.475Z,31.62
2018-07-01T21:34:05.097Z,31.54
2018-07-01T21:36:34.438Z,31.64
2018-07-01T21:39:04.757Z,31.66
2018-07-01T21:41:34.105Z,31.48
2018-07-01T21:44:04.093Z,31.92
2018-07-01T21:46:33.855Z,31.62
2018-07-01T21:49:03.234Z,32.32
2018-07-01T21:51:32.569Z,32.54
2018-07-01T21:54:03.031Z,32.60
2018-07-01T21:56:32.800Z,32.99
2018-07-01T21:59:02.189Z,32.72
2018-07-01T22:01:32.165Z,33.12
2018-07-01T22:04:02.729Z,33.66
2018-07-01T22:06:37.346Z,33.82
2018-07-01T22:09:07.381Z,34.10
2018-07-01T22:11:54.509Z,33.88
2018-07-01T22:14:35.221Z,33.81
2018-07-01T22:17:06.639Z,33.94
2018-07-01T22:19:36.786Z,34.04
2018-07-01T22:22:06.780Z,34.53
2018-07-01T22:24:37.840Z,34.56
2018-07-01T22:27:07.220Z,34.68
2018-07-01T22:29:37.372Z,34.38
2018-07-01T22:32:07.117Z,35.23
2018-07-01T22:34:36.811Z,34.57
2018-07-01T22:37:07.331Z,35.30
2018-07-01T22:39:36.925Z,35.23
2018-07-01T22:42:06.619Z,35.31
2018-07-01T22:44:36.331Z,35.19
2018-07-01T22:47:06.088Z,35.81
2018-07-01T22:49:36.591Z,35.71
2018-07-01T22:52:06.969Z,35.42
2018-07-01T22:54:36.897Z,35.78
2018-07-01T22:57:06.799Z,36.35
2018-07-01T22:59:36.432Z,36.22
2018-07-01T23:03:20.292Z,35.90
2018-07-01T23:05:49.765Z,36.28
2018-07-01T23:08:19.110Z,36.20
2018-07-01T23:10:49.753Z,36.30
2018-07-01T23:13:20.407Z,36.52
2018-07-01T23:15:49.841Z,36.31
2018-07-01T23:18:19.618Z,36.17
2018-07-01T23:20:50.154Z,36.76
2018-07-01T23:23:19.548Z,36.85
2018-07-01T23:25:48.906Z,36.90
2018-07-01T23:28:18.932Z,36.87
2018-07-01T23:30:49.383Z,37.11
2018-07-01T23:33:19.195Z,36.57
2018-07-01T23:35:49.020Z,36.50
2018-07-01T23:38:18.364Z,37.03
2018-07-01T23:40:48.072Z,36.83
2018-07-01T23:43:18.487Z,36.76
2018-07-01T23:45:48.823Z,36.59
2018-07-01T23:48:18.147Z,36.78
2018-07-01T23:50:48.417Z,36.99
2018-07-01T23:53:18.120Z,37.29
2018-07-01T23:55:48.705Z,37.31
2018-07-01T23:58:18.091Z,37.16
